Terminal Aerodrome Forecast
Issued by NWS Raleigh/Durham, NC

Home | Current Version | Previous Version | Text Only | Print | Product List | Glossary On
Versions: 1 2 3 4 5 6 7 8 9 10 11 12 13 14 15 16 17
000
FTUS42 KRAH 211136
TAFRDU
TAF
KRDU 211136Z 2112/2212 00000KT 1/2SM FG VV002
      TEMPO 2115/2119 2SM BR OVC005
     FM211900 VRB03KT P6SM OVC007
      TEMPO 2122/2202 2SM SHRA OVC010
     FM220200 VRB03KT 2SM BR OVC003=

USA.gov is the U.S. government's official web portal to all federal, state and local government web resources and services.